createdAt,value
2017-12-13T00:00:19.864Z,936.4
2017-12-13T00:01:25.196Z,937.3
2017-12-13T00:02:29.296Z,936.4
2017-12-13T00:03:33.955Z,936.3
2017-12-13T00:04:40.538Z,936.2
2017-12-13T00:05:45.774Z,936.3
2017-12-13T00:06:51.622Z,936.4
2017-12-13T00:07:58.005Z,937.2
2017-12-13T00:09:11.428Z,936.4
2017-12-13T00:10:18.407Z,931.8
2017-12-13T00:11:21.788Z,936.7
2017-12-13T00:12:25.243Z,936.4
2017-12-13T00:13:38.560Z,936.5
2017-12-13T00:14:45.678Z,936.4
2017-12-13T00:15:54.343Z,936.4
2017-12-13T00:17:00.695Z,937.2
2017-12-13T00:18:19.599Z,936.4
2017-12-13T00:19:34.441Z,936.4
2017-12-13T00:20:39.815Z,936.4
2017-12-13T00:21:45.085Z,936.3
2017-12-13T00:22:48.734Z,936.4
2017-12-13T00:23:52.242Z,936.4
2017-12-13T00:24:57.773Z,936.4
2017-12-13T00:26:00.936Z,936.4
2017-12-13T00:27:04.353Z,936.3
2017-12-13T00:28:09.317Z,936.4
2017-12-13T00:29:20.896Z,936.4
2017-12-13T00:30:24.316Z,937.3
2017-12-13T00:31:29.806Z,936.3
2017-12-13T00:32:33.451Z,936.3
2017-12-13T00:33:40.110Z,936.3
2017-12-13T00:34:47.128Z,936.3
2017-12-13T00:35:53.052Z,936.2
2017-12-13T00:36:59.943Z,936.3
2017-12-13T00:38:06.403Z,936.3
2017-12-13T00:39:22.770Z,936.3
2017-12-13T00:40:31.880Z,936.3
2017-12-13T00:41:35.934Z,936.4
2017-12-13T00:42:44.799Z,936.3
2017-12-13T00:43:48.118Z,936.3
2017-12-13T00:44:53.135Z,936.4
2017-12-13T00:46:01.253Z,936.3
2017-12-13T00:47:04.798Z,936.3
2017-12-13T00:48:13.091Z,936.3
2017-12-13T00:49:16.565Z,936.3
2017-12-13T00:50:21.198Z,936.3
2017-12-13T00:51:28.140Z,936.5
2017-12-13T00:52:42.515Z,936.5
2017-12-13T00:54:06.815Z,936.5
2017-12-13T00:55:11.065Z,936.6
2017-12-13T00:56:17.307Z,936.5
2017-12-13T00:57:30.506Z,936.5
2017-12-13T00:58:36.491Z,936.6
2017-12-13T00:59:39.874Z,937.5
2017-12-13T01:00:43.182Z,936.6
2017-12-13T01:01:50.869Z,937.5
2017-12-13T01:03:03.839Z,936.6
2017-12-13T01:04:17.295Z,936.7
2017-12-13T01:05:31.900Z,936.6
2017-12-13T01:06:35.303Z,937.6
2017-12-13T01:07:40.838Z,936.7
2017-12-13T01:08:54.151Z,936.7
2017-12-13T01:10:02.808Z,936.8
2017-12-13T01:11:06.191Z,936.7
2017-12-13T01:12:24.276Z,936.7
2017-12-13T01:13:42.702Z,936.7
2017-12-13T01:14:54.235Z,936.6
2017-12-13T01:15:59.391Z,936.5
2017-12-13T01:17:03.131Z,937.5
2017-12-13T01:18:06.594Z,936.7
2017-12-13T01:19:22.902Z,936.7
2017-12-13T01:20:28.128Z,936.7
2017-12-13T01:21:41.538Z,936.8
2017-12-13T01:22:47.088Z,937.6
2017-12-13T01:23:51.164Z,937.6
2017-12-13T01:24:59.721Z,936.7
2017-12-13T01:26:36.550Z,936.8
2017-12-13T01:27:53.060Z,936.7
2017-12-13T01:28:56.725Z,936.8
2017-12-13T01:30:05.434Z,936.7
2017-12-13T01:31:10.294Z,936.7
2017-12-13T01:32:25.254Z,937.6
2017-12-13T01:33:31.441Z,936.7
2017-12-13T01:34:41.236Z,936.8
2017-12-13T01:35:48.221Z,936.7
2017-12-13T01:36:53.182Z,936.7
2017-12-13T01:38:23.697Z,936.8
2017-12-13T01:39:30.607Z,936.8
2017-12-13T01:40:36.110Z,936.8
2017-12-13T01:41:40.936Z,936.7
2017-12-13T01:42:48.139Z,936.7
2017-12-13T01:43:56.502Z,936.7
2017-12-13T01:45:00.735Z,936.8
2017-12-13T01:46:24.754Z,936.7
2017-12-13T01:47:39.193Z,936.7
2017-12-13T01:48:44.896Z,937.3
2017-12-13T01:49:58.095Z,936.8
2017-12-13T01:51:01.386Z,937.6
2017-12-13T01:52:08.896Z,936.7
2017-12-13T01:53:44.596Z,936.7
2017-12-13T01:54:51.906Z,936.5
2017-12-13T01:55:59.632Z,936.7
2017-12-13T01:57:08.604Z,937.5
2017-12-13T01:58:17.463Z,937.6
2017-12-13T01:59:23.230Z,936.7
2017-12-13T02:00:29.048Z,937.6
2017-12-13T02:01:50.568Z,936.7
2017-12-13T02:02:53.845Z,936.7
2017-12-13T02:03:58.054Z,936.7
2017-12-13T02:05:01.147Z,937.6
2017-12-13T02:06:06.641Z,936.7
2017-12-13T02:07:11.363Z,936.7
2017-12-13T02:08:17.049Z,936.8
2017-12-13T02:09:22.502Z,936.8
2017-12-13T02:10:26.363Z,936.8
2017-12-13T02:11:30.314Z,936.7
2017-12-13T02:12:39.206Z,936.8
2017-12-13T02:13:43.645Z,937.7
2017-12-13T02:14:51.121Z,936.8
2017-12-13T02:15:59.170Z,936.7
2017-12-13T02:17:08.217Z,936.7
2017-12-13T02:18:12.474Z,936.7
2017-12-13T02:19:16.031Z,936.8
2017-12-13T02:20:19.948Z,936.8
2017-12-13T02:21:24.007Z,936.8
2017-12-13T02:22:28.316Z,936.8
2017-12-13T02:23:36.540Z,936.7
2017-12-13T02:24:40.147Z,936.7
2017-12-13T02:25:45.798Z,936.7
2017-12-13T02:26:50.185Z,936.8
2017-12-13T02:27:58.662Z,936.6
2017-12-13T02:29:02.670Z,936.7
2017-12-13T02:30:06.143Z,936.6
2017-12-13T02:31:12.893Z,937.5
2017-12-13T02:32:18.039Z,936.6
2017-12-13T02:33:26.003Z,936.6
2017-12-13T02:34:35.291Z,936.6
2017-12-13T02:35:41.673Z,936.6
2017-12-13T02:36:55.925Z,936.6
2017-12-13T02:38:01.564Z,936.7
2017-12-13T02:39:14.982Z,936.5
2017-12-13T02:40:38.379Z,936.6
2017-12-13T02:41:42.983Z,936.6
2017-12-13T02:43:06.855Z,936.7
2017-12-13T02:44:23.661Z,936.7
2017-12-13T02:45:27.279Z,936.6
2017-12-13T02:46:34.557Z,936.7
2017-12-13T02:47:49.015Z,937.5
2017-12-13T02:48:58.141Z,936.6
2017-12-13T02:50:01.665Z,937.4
2017-12-13T02:51:06.222Z,936.6
2017-12-13T02:52:11.542Z,936.6
2017-12-13T02:53:15.210Z,936.6
2017-12-13T02:54:18.923Z,936.6
2017-12-13T02:55:22.444Z,936.5
2017-12-13T02:56:28.871Z,936.5
2017-12-13T02:57:37.529Z,936.5
2017-12-13T02:58:41.657Z,936.5
2017-12-13T02:59:44.953Z,937.5
2017-12-13T03:00:51.191Z,936.5
2017-12-13T03:01:54.659Z,936.6
2017-12-13T03:02:59.383Z,936.5
2017-12-13T03:04:02.846Z,936.5
2017-12-13T03:05:07.328Z,936.5
2017-12-13T03:06:12.017Z,936.5
2017-12-13T03:07:16.454Z,936.5
2017-12-13T03:08:23.789Z,936.6
2017-12-13T03:09:27.312Z,936.5
2017-12-13T03:10:31.867Z,932.1
2017-12-13T03:11:37.703Z,936.6
2017-12-13T03:12:42.789Z,936.5
2017-12-13T03:13:48.668Z,936.6
2017-12-13T03:14:52.747Z,937.5
2017-12-13T03:15:56.587Z,936.6
2017-12-13T03:17:02.656Z,936.4
2017-12-13T03:18:07.794Z,936.5
2017-12-13T03:19:15.449Z,936.5
2017-12-13T03:20:19.884Z,936.6
2017-12-13T03:21:24.395Z,936.5
2017-12-13T03:22:29.131Z,936.2
2017-12-13T03:23:34.937Z,936.5
2017-12-13T03:24:40.837Z,936.5
2017-12-13T03:25:45.828Z,936.6
2017-12-13T03:26:51.267Z,936.6
2017-12-13T03:27:56.278Z,936.5
2017-12-13T03:28:59.394Z,936.6
2017-12-13T03:30:07.243Z,937.5
2017-12-13T03:31:22.656Z,937.5
2017-12-13T03:32:38.234Z,936.6
2017-12-13T03:33:42.147Z,936.6
2017-12-13T03:34:45.621Z,936.6
2017-12-13T03:35:49.214Z,936.7
2017-12-13T03:36:57.205Z,936.7
2017-12-13T03:38:02.009Z,937.5
2017-12-13T03:39:07.043Z,936.7
2017-12-13T03:40:11.154Z,936.7
2017-12-13T03:41:18.756Z,936.7
2017-12-13T03:42:22.724Z,932.4
2017-12-13T03:43:26.155Z,936.7
2017-12-13T03:44:30.016Z,936.9
2017-12-13T03:45:34.203Z,936.7
2017-12-13T03:46:37.642Z,936.6
2017-12-13T03:47:41.120Z,936.7
2017-12-13T03:48:45.925Z,936.7
2017-12-13T03:49:50.920Z,936.7
2017-12-13T03:50:54.144Z,936.8
2017-12-13T03:52:03.114Z,936.6
2017-12-13T03:53:09.400Z,936.6
2017-12-13T03:54:23.918Z,936.7
2017-12-13T03:55:28.739Z,936.6
2017-12-13T03:56:32.842Z,936.7
2017-12-13T03:57:37.232Z,936.5
2017-12-13T03:58:41.731Z,936.7
2017-12-13T03:59:46.856Z,936.7
2017-12-13T04:00:50.627Z,936.7
2017-12-13T04:01:54.010Z,936.7
2017-12-13T04:03:01.027Z,937.5
2017-12-13T04:04:05.968Z,932.5
2017-12-13T04:05:10.788Z,936.6
2017-12-13T04:06:21.471Z,936.7
2017-12-13T04:07:27.912Z,936.7
2017-12-13T04:08:31.954Z,936.7
2017-12-13T04:09:36.423Z,937.6
2017-12-13T04:10:42.005Z,936.7
2017-12-13T04:11:48.834Z,937.5
2017-12-13T04:12:59.019Z,937.6
2017-12-13T04:14:08.464Z,936.7
2017-12-13T04:15:14.578Z,936.6
2017-12-13T04:16:17.999Z,936.5
2017-12-13T04:17:21.273Z,936.5
2017-12-13T04:18:28.759Z,936.7
2017-12-13T04:19:34.800Z,936.5
2017-12-13T04:20:39.206Z,937.5
2017-12-13T04:21:43.218Z,936.6
2017-12-13T04:22:49.380Z,932.6
2017-12-13T04:23:57.598Z,936.7
2017-12-13T04:25:09.075Z,937.5
2017-12-13T04:26:13.338Z,936.6
2017-12-13T04:27:17.094Z,936.8
2017-12-13T04:28:23.022Z,936.6
2017-12-13T04:29:26.849Z,937.4
2017-12-13T04:30:30.779Z,936.7
2017-12-13T04:31:38.696Z,936.6
2017-12-13T04:32:43.528Z,936.6
2017-12-13T04:33:50.339Z,936.6
2017-12-13T04:34:58.224Z,936.7
2017-12-13T04:36:07.436Z,937.6
2017-12-13T04:37:15.529Z,936.6
2017-12-13T04:38:19.436Z,936.6
2017-12-13T04:39:24.817Z,936.7
2017-12-13T04:40:28.622Z,936.6
2017-12-13T04:41:31.997Z,936.7
2017-12-13T04:42:39.598Z,936.7
2017-12-13T04:43:45.888Z,936.2
2017-12-13T04:44:49.297Z,937.6
2017-12-13T04:45:54.316Z,936.7
2017-12-13T04:47:00.669Z,936.8
2017-12-13T04:48:05.282Z,937.5
2017-12-13T04:49:09.320Z,936.7
2017-12-13T04:50:16.127Z,936.7
2017-12-13T04:51:20.497Z,936.7
2017-12-13T04:52:27.849Z,936.7
2017-12-13T04:53:33.473Z,936.6
2017-12-13T04:54:39.292Z,936.6
2017-12-13T04:55:42.747Z,936.6
2017-12-13T04:56:47.651Z,936.7
2017-12-13T04:57:58.448Z,937.6
2017-12-13T04:59:05.233Z,936.7
2017-12-13T05:00:08.667Z,936.8
2017-12-13T05:01:15.387Z,936.8
2017-12-13T05:02:18.507Z,932.6
2017-12-13T05:03:23.177Z,936.6
2017-12-13T05:04:28.657Z,936.8
2017-12-13T05:05:37.001Z,936.8
2017-12-13T05:06:47.754Z,936.7
2017-12-13T05:07:52.986Z,936.8
2017-12-13T05:09:03.086Z,936.8
2017-12-13T05:10:13.266Z,936.8
2017-12-13T05:11:17.594Z,936.8
2017-12-13T05:12:21.059Z,936.8
2017-12-13T05:13:27.024Z,936.1
2017-12-13T05:14:35.067Z,937.7
2017-12-13T05:15:40.839Z,936.7
2017-12-13T05:16:45.155Z,936.8
2017-12-13T05:17:51.203Z,936.8
2017-12-13T05:18:57.632Z,936.8
2017-12-13T05:20:07.053Z,936.7
2017-12-13T05:21:12.667Z,936.8
2017-12-13T05:22:16.683Z,937.7
2017-12-13T05:23:22.079Z,936.6
2017-12-13T05:24:28.867Z,936.8
2017-12-13T05:25:36.348Z,936.8
2017-12-13T05:26:41.380Z,936.8
2017-12-13T05:27:46.021Z,936.7
2017-12-13T05:28:50.755Z,937.7
2017-12-13T05:29:59.253Z,936.8
2017-12-13T05:31:07.659Z,937.7
2017-12-13T05:32:11.852Z,936.7
2017-12-13T05:33:15.875Z,936.7
2017-12-13T05:34:19.415Z,936.6
2017-12-13T05:35:22.798Z,936.6
2017-12-13T05:36:26.970Z,936.7
2017-12-13T05:37:30.341Z,936.7
2017-12-13T05:38:33.893Z,936.7
2017-12-13T05:39:37.413Z,936.7
2017-12-13T05:40:40.759Z,936.6
2017-12-13T05:41:49.411Z,936.6
2017-12-13T05:42:52.875Z,936.6
2017-12-13T05:43:56.307Z,936.5
2017-12-13T05:45:01.366Z,937.5
2017-12-13T05:46:04.841Z,936.6
2017-12-13T05:47:08.351Z,936.7
2017-12-13T05:48:11.781Z,936.6
2017-12-13T05:49:15.796Z,936.6
2017-12-13T05:50:20.051Z,935.3
2017-12-13T05:51:24.085Z,937.5
2017-12-13T05:52:32.961Z,936.6
2017-12-13T05:53:37.847Z,936.7
2017-12-13T05:54:42.092Z,936.7
2017-12-13T05:55:46.104Z,936.6
2017-12-13T05:56:51.571Z,937.5
2017-12-13T05:57:56.230Z,936.7
2017-12-13T05:59:00.764Z,936.6
2017-12-13T06:00:04.205Z,936.6
2017-12-13T06:01:08.239Z,937.6
2017-12-13T06:02:12.756Z,936.7
2017-12-13T06:03:19.670Z,936.6
2017-12-13T06:04:23.115Z,936.6
2017-12-13T06:05:26.500Z,936.5
2017-12-13T06:06:29.763Z,936.5
2017-12-13T06:07:33.143Z,937.5
2017-12-13T06:08:37.848Z,936.5
2017-12-13T06:09:41.426Z,936.5
2017-12-13T06:10:46.630Z,936.5
2017-12-13T06:11:51.530Z,936.5
2017-12-13T06:12:54.851Z,936.5
2017-12-13T06:14:02.054Z,937
2017-12-13T06:15:06.162Z,936.5
2017-12-13T06:16:09.715Z,936.5
2017-12-13T06:17:15.940Z,936.5
2017-12-13T06:18:24.543Z,936.6
2017-12-13T06:19:30.227Z,936.6
2017-12-13T06:20:33.610Z,937.4
2017-12-13T06:21:37.867Z,936.5
2017-12-13T06:22:41.371Z,936.5
2017-12-13T06:23:46.433Z,936.5
2017-12-13T06:24:54.625Z,936.4
2017-12-13T06:26:00.365Z,936.5
2017-12-13T06:27:07.001Z,936.5
2017-12-13T06:28:12.368Z,936.4
2017-12-13T06:29:19.639Z,937.5
2017-12-13T06:30:27.546Z,936.4
2017-12-13T06:31:32.136Z,936.4
2017-12-13T06:32:36.288Z,936.4
2017-12-13T06:33:41.552Z,936.4
2017-12-13T06:34:50.027Z,936.4
2017-12-13T06:36:00.335Z,936.4
2017-12-13T06:37:05.147Z,936.3
2017-12-13T06:38:11.745Z,936.4
2017-12-13T06:39:18.406Z,936.3
2017-12-13T06:40:23.786Z,937.3
2017-12-13T06:41:28.636Z,937.2
2017-12-13T06:42:33.807Z,936.2
2017-12-13T06:43:38.706Z,936.2
2017-12-13T06:44:42.184Z,937.2
2017-12-13T06:45:47.178Z,936.3
2017-12-13T06:46:57.430Z,936.2
2017-12-13T06:48:02.180Z,936.5
2017-12-13T06:49:07.053Z,936.2
2017-12-13T06:50:12.446Z,936.2
2017-12-13T06:51:17.763Z,936.2
2017-12-13T06:52:22.346Z,936.1
2017-12-13T06:53:29.247Z,936.2
2017-12-13T06:54:33.226Z,936.2
2017-12-13T06:55:40.177Z,936.2
2017-12-13T06:56:48.076Z,936.2
2017-12-13T06:57:59.276Z,936.2
2017-12-13T06:59:06.263Z,936.2
2017-12-13T07:00:12.060Z,936.2
2017-12-13T07:01:15.644Z,936.1
2017-12-13T07:02:22.459Z,937.1
2017-12-13T07:03:29.965Z,936.2
2017-12-13T07:04:36.627Z,936.2
2017-12-13T07:05:41.376Z,936
2017-12-13T07:06:47.148Z,936.2
2017-12-13T07:07:51.294Z,936.2
2017-12-13T07:08:57.629Z,936.2
2017-12-13T07:10:05.478Z,937.1
2017-12-13T07:11:12.109Z,936.2
2017-12-13T07:12:15.579Z,936.1
2017-12-13T07:13:19.407Z,936
2017-12-13T07:14:26.102Z,936.1
2017-12-13T07:15:31.226Z,936
2017-12-13T07:16:35.131Z,936
2017-12-13T07:17:38.569Z,936.1
2017-12-13T07:18:42.962Z,936.9
2017-12-13T07:19:55.787Z,936
2017-12-13T07:21:02.796Z,936.1
2017-12-13T07:22:12.714Z,936.1
2017-12-13T07:23:18.901Z,936.1
2017-12-13T07:24:32.338Z,936
2017-12-13T07:25:35.792Z,936.1
2017-12-13T07:26:39.811Z,936
2017-12-13T07:27:46.457Z,936
2017-12-13T07:28:52.242Z,936.8
2017-12-13T07:30:00.586Z,935.9
2017-12-13T07:31:11.343Z,935.9
2017-12-13T07:32:29.088Z,936.8
2017-12-13T07:33:35.046Z,935.8
2017-12-13T07:34:45.413Z,935.8
2017-12-13T07:35:52.300Z,936.7
2017-12-13T07:36:58.757Z,935.8
2017-12-13T07:38:04.123Z,936.7
2017-12-13T07:39:12.425Z,935.8
2017-12-13T07:40:19.713Z,935.9
2017-12-13T07:41:27.353Z,935.8
2017-12-13T07:42:34.425Z,935.8
2017-12-13T07:43:39.940Z,935.8
2017-12-13T07:44:43.940Z,935.8
2017-12-13T07:45:50.956Z,934.7
2017-12-13T07:46:55.778Z,935.7
2017-12-13T07:48:01.132Z,936.6
2017-12-13T07:49:04.792Z,936.5
2017-12-13T07:50:08.181Z,936.6
2017-12-13T07:51:18.244Z,935.7
2017-12-13T07:52:22.373Z,935.7
2017-12-13T07:53:34.162Z,935.6
2017-12-13T07:54:38.794Z,935.6
2017-12-13T07:55:45.384Z,935.5
2017-12-13T07:56:49.932Z,935.6
2017-12-13T07:57:54.200Z,935.6
2017-12-13T07:59:03.381Z,936.4
2017-12-13T08:00:08.734Z,935.6
2017-12-13T08:01:15.800Z,935.4
2017-12-13T08:02:19.152Z,935.4
2017-12-13T08:03:27.011Z,935.5
2017-12-13T08:04:34.750Z,935.5
2017-12-13T08:05:39.000Z,930.7
2017-12-13T08:06:45.642Z,935.5
2017-12-13T08:07:51.197Z,935.5
2017-12-13T08:09:01.326Z,936.4
2017-12-13T08:10:05.913Z,935.4
2017-12-13T08:11:13.547Z,935.4
2017-12-13T08:12:20.304Z,935.5
2017-12-13T08:13:28.177Z,935.4
2017-12-13T08:14:31.723Z,935.3
2017-12-13T08:15:40.770Z,935.4
2017-12-13T08:16:44.698Z,935.4
2017-12-13T08:17:52.210Z,935.5
2017-12-13T08:18:55.606Z,935.3
2017-12-13T08:20:04.910Z,935.3
2017-12-13T08:21:09.173Z,935.3
2017-12-13T08:22:12.631Z,935.3
2017-12-13T08:23:17.273Z,935.3
2017-12-13T08:24:22.945Z,935.3
2017-12-13T08:25:26.476Z,935.3
2017-12-13T08:26:34.269Z,930.6
2017-12-13T08:27:39.063Z,936.1
2017-12-13T08:28:43.479Z,935.4
2017-12-13T08:29:49.168Z,935.3
2017-12-13T08:30:56.958Z,935.3
2017-12-13T08:32:02.461Z,935.3
2017-12-13T08:33:07.314Z,935.3
2017-12-13T08:34:16.139Z,930.6
2017-12-13T08:35:20.861Z,935.2
2017-12-13T08:36:24.564Z,935.2
2017-12-13T08:37:32.131Z,936.2
2017-12-13T08:38:36.030Z,935.3
2017-12-13T08:39:39.872Z,935.4
2017-12-13T08:40:43.409Z,935.2
2017-12-13T08:41:46.943Z,935.3
2017-12-13T08:42:50.407Z,935.3
2017-12-13T08:43:53.946Z,935.3
2017-12-13T08:44:57.454Z,935.3
2017-12-13T08:46:00.769Z,936.2
2017-12-13T08:47:05.644Z,931
2017-12-13T08:48:12.768Z,935.4
2017-12-13T08:49:17.086Z,935.3
2017-12-13T08:50:20.556Z,936.2
2017-12-13T08:51:24.011Z,935.3
2017-12-13T08:52:27.536Z,935.2
2017-12-13T08:53:32.729Z,935.3
2017-12-13T08:54:36.140Z,935.2
2017-12-13T08:55:39.683Z,935.2
2017-12-13T08:56:43.684Z,935.2
2017-12-13T08:57:47.271Z,935.2
2017-12-13T08:58:54.841Z,935.2
2017-12-13T09:00:00.221Z,935.1
2017-12-13T09:01:04.004Z,935.2
2017-12-13T09:02:07.428Z,935.2
2017-12-13T09:03:11.965Z,935.1
2017-12-13T09:04:15.513Z,936.1
2017-12-13T09:05:19.539Z,935.2
2017-12-13T09:06:23.165Z,935.2
2017-12-13T09:07:27.191Z,935.1
2017-12-13T09:08:31.633Z,935.1
2017-12-13T09:09:38.912Z,935.2
2017-12-13T09:10:42.460Z,935.1
2017-12-13T09:11:46.716Z,935.2
2017-12-13T09:12:50.918Z,935.2
2017-12-13T09:13:54.526Z,935.1
2017-12-13T09:14:59.512Z,935.2
2017-12-13T09:16:05.319Z,935.2
2017-12-13T09:17:09.918Z,935.2
2017-12-13T09:18:14.417Z,935.2
2017-12-13T09:19:20.936Z,935.2
2017-12-13T09:20:31.744Z,935.2
2017-12-13T09:21:39.412Z,935.2
2017-12-13T09:22:43.580Z,935.2
2017-12-13T09:23:52.803Z,935.1
2017-12-13T09:25:02.104Z,935.1
2017-12-13T09:26:07.557Z,935.1
2017-12-13T09:27:11.982Z,935.9
2017-12-13T09:28:21.413Z,935.1
2017-12-13T09:29:26.054Z,935.9
2017-12-13T09:30:32.429Z,935
2017-12-13T09:31:42.934Z,935.1
2017-12-13T09:32:46.469Z,935.9
2017-12-13T09:33:52.670Z,935.1
2017-12-13T09:34:56.605Z,936
2017-12-13T09:36:03.121Z,935.1
2017-12-13T09:37:09.102Z,935.9
2017-12-13T09:38:15.271Z,935
2017-12-13T09:39:23.569Z,935
2017-12-13T09:40:29.481Z,935
2017-12-13T09:41:36.061Z,935
2017-12-13T09:42:50.256Z,935
2017-12-13T09:43:57.765Z,934.9
2017-12-13T09:45:06.126Z,933.9
2017-12-13T09:46:16.970Z,934.9
2017-12-13T09:47:24.186Z,934.9
2017-12-13T09:48:31.374Z,934.9
2017-12-13T09:49:40.820Z,934.8
2017-12-13T09:50:47.476Z,934.9
2017-12-13T09:51:59.373Z,934.9
2017-12-13T09:53:05.746Z,934.8
2017-12-13T09:54:21.388Z,934.8
2017-12-13T09:55:27.726Z,934.7
2017-12-13T09:56:36.785Z,930.4
2017-12-13T09:57:46.785Z,935.5
2017-12-13T09:58:56.418Z,934.7
2017-12-13T10:00:05.902Z,934.7
2017-12-13T10:01:13.020Z,934.7
2017-12-13T10:02:20.135Z,934.6
2017-12-13T10:03:24.384Z,934.7
2017-12-13T10:04:31.744Z,934.6
2017-12-13T10:05:50.828Z,935.4
2017-12-13T10:06:59.630Z,934.6
2017-12-13T10:08:09.937Z,934.5
2017-12-13T10:09:17.166Z,934.5
2017-12-13T10:10:21.300Z,934.4
2017-12-13T10:11:25.873Z,934.5
2017-12-13T10:12:29.960Z,935.3
2017-12-13T10:13:33.327Z,934.3
2017-12-13T10:14:40.093Z,934.3
2017-12-13T10:15:43.622Z,934.4
2017-12-13T10:16:54.756Z,935
2017-12-13T10:18:08.527Z,934.2
2017-12-13T10:19:14.554Z,934.2
2017-12-13T10:20:26.213Z,934.2
2017-12-13T10:21:29.654Z,934.1
2017-12-13T10:22:34.663Z,934.9
2017-12-13T10:23:41.555Z,934
2017-12-13T10:24:44.927Z,933.9
2017-12-13T10:25:50.558Z,934
2017-12-13T10:26:55.194Z,933.9
2017-12-13T10:28:08.144Z,933.9
2017-12-13T10:29:16.501Z,933.8
2017-12-13T10:30:23.626Z,933.9
2017-12-13T10:31:27.662Z,933.9
2017-12-13T10:32:31.786Z,933.9
2017-12-13T10:33:43.349Z,933.8
2017-12-13T10:34:46.925Z,933.8
2017-12-13T10:35:51.680Z,934.7
2017-12-13T10:36:55.209Z,933.8
2017-12-13T10:38:01.853Z,934.6
2017-12-13T10:39:09.372Z,933.7
2017-12-13T10:40:19.078Z,933.6
2017-12-13T10:41:22.936Z,933.7
2017-12-13T10:42:29.461Z,933.6
2017-12-13T10:43:33.803Z,933.7
2017-12-13T10:44:37.457Z,934.3
2017-12-13T10:45:42.709Z,934.5
2017-12-13T10:46:49.254Z,933.6
2017-12-13T10:47:57.705Z,932.7
2017-12-13T10:49:04.178Z,933.6
2017-12-13T10:50:12.992Z,934.4
2017-12-13T10:51:18.519Z,933.5
2017-12-13T10:52:25.339Z,933.5
2017-12-13T10:53:28.846Z,933.4
2017-12-13T10:54:32.166Z,933.5
2017-12-13T10:55:40.060Z,933.5
2017-12-13T10:56:43.659Z,933.5
2017-12-13T10:57:51.482Z,933.4
2017-12-13T10:58:55.514Z,933.3
2017-12-13T11:00:00.743Z,933.3
2017-12-13T11:01:11.375Z,933.3
2017-12-13T11:02:15.025Z,933.3
2017-12-13T11:03:18.154Z,933.3
2017-12-13T11:04:21.737Z,934.1
2017-12-13T11:05:28.066Z,934
2017-12-13T11:06:31.608Z,933.2
2017-12-13T11:07:38.397Z,933.2
2017-12-13T11:08:41.793Z,934
2017-12-13T11:09:47.714Z,933.2
2017-12-13T11:10:53.180Z,933.2
2017-12-13T11:12:00.194Z,933.2
2017-12-13T11:13:03.971Z,933.3
2017-12-13T11:14:09.587Z,933.2
2017-12-13T11:15:18.128Z,933.2
2017-12-13T11:16:23.486Z,933.2
2017-12-13T11:17:27.086Z,933.2
2017-12-13T11:18:34.178Z,933.2
2017-12-13T11:19:40.083Z,933.1
2017-12-13T11:20:44.836Z,933.1
2017-12-13T11:21:49.581Z,933.3
2017-12-13T11:22:55.681Z,933
2017-12-13T11:24:00.542Z,932.9
2017-12-13T11:25:04.034Z,932.9
2017-12-13T11:26:09.921Z,932.9
2017-12-13T11:27:14.786Z,932.8
2017-12-13T11:28:20.177Z,933.6
2017-12-13T11:29:23.596Z,932.8
2017-12-13T11:30:27.222Z,932.8
2017-12-13T11:31:30.452Z,933.5
2017-12-13T11:32:33.715Z,932.6
2017-12-13T11:33:40.676Z,932.7
2017-12-13T11:34:44.688Z,932.7
2017-12-13T11:35:48.134Z,932.6
2017-12-13T11:36:51.631Z,932.7
2017-12-13T11:37:55.130Z,932.6
2017-12-13T11:38:59.174Z,932.5
2017-12-13T11:40:03.908Z,932.5
2017-12-13T11:41:07.433Z,932.4
2017-12-13T11:42:10.871Z,932.4
2017-12-13T11:43:14.858Z,932.5
2017-12-13T11:44:21.600Z,933.1
2017-12-13T11:45:26.243Z,932.3
2017-12-13T11:46:30.808Z,932.2
2017-12-13T11:47:34.321Z,932.1
2017-12-13T11:48:38.592Z,932.1
2017-12-13T11:49:44.187Z,932.1
2017-12-13T11:50:48.953Z,932.1
2017-12-13T11:51:52.741Z,932.1
2017-12-13T11:52:57.275Z,932
2017-12-13T11:54:03.470Z,932
2017-12-13T11:55:13.099Z,931.9
2017-12-13T11:56:17.253Z,932.1
2017-12-13T11:57:24.450Z,931.8
2017-12-13T11:58:29.800Z,932.6
2017-12-13T11:59:34.702Z,931.8
2017-12-13T12:00:39.337Z,931.7
2017-12-13T12:01:44.594Z,931.6
2017-12-13T12:02:53.710Z,931.7
2017-12-13T12:03:58.284Z,931.6
2017-12-13T12:05:03.015Z,931.4
2017-12-13T12:06:10.750Z,931.6
2017-12-13T12:07:16.386Z,931.4
2017-12-13T12:08:20.415Z,931.4
2017-12-13T12:09:23.858Z,931.4
2017-12-13T12:10:27.841Z,932.1
2017-12-13T12:11:34.491Z,932.2
2017-12-13T12:12:39.764Z,931.3
2017-12-13T12:13:45.014Z,931.2
2017-12-13T12:14:48.638Z,932.1
2017-12-13T12:15:53.220Z,930.3
2017-12-13T12:17:02.699Z,931.1
2017-12-13T12:18:08.045Z,931.1
2017-12-13T12:19:11.412Z,931
2017-12-13T12:20:15.610Z,930.8
2017-12-13T12:21:19.008Z,930.8
2017-12-13T12:22:24.658Z,930.8
2017-12-13T12:23:29.949Z,930.8
2017-12-13T12:24:36.486Z,930.7
2017-12-13T12:25:42.492Z,931.6
2017-12-13T12:26:48.218Z,931.4
2017-12-13T12:27:55.758Z,930.6
2017-12-13T12:29:00.299Z,930.5
2017-12-13T12:30:03.818Z,930.4
2017-12-13T12:31:07.637Z,930.4
2017-12-13T12:32:12.280Z,930.4
2017-12-13T12:33:17.198Z,930.3
2017-12-13T12:34:21.180Z,930.3
2017-12-13T12:35:25.904Z,930.2
2017-12-13T12:36:31.060Z,930.2
2017-12-13T12:37:35.939Z,930.2
2017-12-13T12:38:47.746Z,930.3
2017-12-13T12:39:54.116Z,930.2
2017-12-13T12:40:59.208Z,930.2
2017-12-13T12:42:02.757Z,930.1
2017-12-13T12:43:07.563Z,929.7
2017-12-13T12:44:11.232Z,930
2017-12-13T12:45:19.109Z,930
2017-12-13T12:46:23.124Z,930
2017-12-13T12:47:31.069Z,930
2017-12-13T12:48:34.563Z,930.7
2017-12-13T12:49:44.074Z,929.9
2017-12-13T12:50:54.306Z,929.9
2017-12-13T12:51:59.343Z,929.8
2017-12-13T12:53:03.492Z,929.8
2017-12-13T12:54:06.934Z,929.8
2017-12-13T12:55:16.725Z,929.8
2017-12-13T12:56:20.252Z,929.8
2017-12-13T12:57:23.756Z,929.7
2017-12-13T12:58:27.800Z,929.7
2017-12-13T12:59:32.416Z,929.5
2017-12-13T13:00:40.580Z,930.5
2017-12-13T13:01:46.187Z,929.7
2017-12-13T13:02:49.966Z,929.7
2017-12-13T13:03:55.521Z,929.8
2017-12-13T13:05:01.538Z,929.7
2017-12-13T13:06:07.595Z,929.7
2017-12-13T13:07:12.035Z,929.7
2017-12-13T13:08:19.838Z,929.7
2017-12-13T13:09:23.967Z,929.7
2017-12-13T13:10:28.692Z,929.4
2017-12-13T13:11:37.216Z,929.6
2017-12-13T13:12:40.593Z,929.6
2017-12-13T13:13:44.429Z,929.6
2017-12-13T13:14:48.946Z,929.6
2017-12-13T13:15:52.275Z,929.5
2017-12-13T13:16:57.921Z,929.5
2017-12-13T13:18:02.379Z,929.4
2017-12-13T13:19:11.355Z,929.5
2017-12-13T13:20:15.212Z,929.4
2017-12-13T13:21:18.736Z,929.4
2017-12-13T13:22:26.812Z,929.3
2017-12-13T13:23:32.328Z,930.1
2017-12-13T13:24:36.340Z,929.3
2017-12-13T13:25:40.226Z,929.2
2017-12-13T13:26:43.626Z,929.3
2017-12-13T13:27:49.357Z,929.2
2017-12-13T13:28:52.969Z,929.1
2017-12-13T13:29:56.978Z,929.1
2017-12-13T13:31:02.067Z,930
2017-12-13T13:32:07.502Z,930
2017-12-13T13:33:19.581Z,928.9
2017-12-13T13:34:24.244Z,929
2017-12-13T13:35:27.666Z,929.8
2017-12-13T13:36:31.646Z,928.8
2017-12-13T13:37:36.688Z,929.7
2017-12-13T13:38:42.211Z,928.9
2017-12-13T13:39:45.675Z,929.6
2017-12-13T13:40:51.150Z,928.7
2017-12-13T13:41:54.661Z,928.7
2017-12-13T13:42:58.800Z,928.7
2017-12-13T13:44:06.973Z,928.7
2017-12-13T13:45:10.233Z,928.6
2017-12-13T13:46:16.596Z,928.6
2017-12-13T13:47:21.908Z,928.5
2017-12-13T13:48:27.164Z,928.5
2017-12-13T13:49:31.347Z,928.5
2017-12-13T13:50:36.666Z,928.5
2017-12-13T13:51:42.774Z,929.4
2017-12-13T13:52:46.793Z,928.5
2017-12-13T13:53:51.304Z,928.6
2017-12-13T13:54:58.213Z,924.3
2017-12-13T13:56:02.425Z,928.5
2017-12-13T13:57:05.976Z,928.5
2017-12-13T13:58:10.015Z,928.5
2017-12-13T13:59:13.320Z,928.6
2017-12-13T14:00:19.574Z,928.5
2017-12-13T14:01:23.073Z,928.6
2017-12-13T14:02:26.352Z,928.5
2017-12-13T14:03:29.877Z,928.5
2017-12-13T14:04:33.268Z,929.4
2017-12-13T14:05:40.273Z,928.5
2017-12-13T14:06:44.974Z,929.3
2017-12-13T14:07:48.344Z,929.2
2017-12-13T14:08:51.888Z,928.4
2017-12-13T14:09:55.284Z,928.4
2017-12-13T14:10:58.658Z,928.3
2017-12-13T14:12:02.242Z,929.1
2017-12-13T14:13:05.750Z,928.3
2017-12-13T14:14:09.894Z,928.2